Time;durP1;ratioP1;P1;durP2;ratioP2;P2;SDS_P1;SDS_P2;PMS_P1;PMS_P2;Temp;Humidity;BMP_temperature;BMP_pressure;BME280_temperature;BME280_humidity;BME280_pressure;Samples;Min_cycle;Max_cycle;Signal;HPM_P1;HPM_P2
2021/12/13 00:01:28;;;;;;;29.27;5.95;;;1.40;99.90;;;;;;5031786;28;20188;-76
2021/12/13 00:04:00;;;;;;;10.65;6.00;;;1.40;99.90;;;;;;5031794;28;20246;-76
2021/12/13 00:06:31;;;;;;;7.07;4.95;;;1.40;99.90;;;;;;5031897;28;20216;-77
2021/12/13 00:09:01;;;;;;;7.15;5.00;;;1.30;99.90;;;;;;5031757;28;20194;-76
2021/12/13 00:11:32;;;;;;;10.23;5.03;;;1.40;99.90;;;;;;5031833;28;20165;-76
2021/12/13 00:14:08;;;;;;;10.48;4.93;;;1.30;99.90;;;;;;5031800;28;20154;-76
2021/12/13 00:16:42;;;;;;;7.25;5.05;;;1.40;99.90;;;;;;5031798;28;20166;-76
2021/12/13 00:19:16;;;;;;;12.88;6.13;;;1.30;99.90;;;;;;5031675;28;20198;-76
2021/12/13 00:21:50;;;;;;;8.38;5.13;;;1.30;99.90;;;;;;5031679;28;20165;-75
2021/12/13 00:24:28;;;;;;;7.97;5.35;;;1.40;99.90;;;;;;5031458;28;20192;-76
2021/12/13 00:27:22;;;;;;;8.70;5.10;;;1.30;99.90;;;;;;5031481;28;20184;-76
2021/12/13 00:30:09;;;;;;;9.43;5.40;;;1.30;99.90;;;;;;5030058;28;20186;-76
2021/12/13 00:32:45;;;;;;;7.03;5.50;;;1.30;99.90;;;;;;5031515;28;20213;-76
2021/12/13 00:35:25;;;;;;;8.60;5.05;;;1.40;99.90;;;;;;5031413;28;20547;-76
2021/12/13 00:37:58;;;;;;;6.85;4.50;;;1.40;99.90;;;;;;5013650;28;20197;-77
2021/12/13 00:40:31;;;;;;;7.80;5.57;;;1.40;99.90;;;;;;5031327;28;20158;-76
2021/12/13 00:43:05;;;;;;;11.27;5.93;;;1.40;99.90;;;;;;5031120;28;20170;-77
2021/12/13 00:45:34;;;;;;;7.38;4.97;;;1.30;99.90;;;;;;5028382;28;20175;-76
2021/12/13 00:48:02;;;;;;;10.25;6.18;;;1.30;99.90;;;;;;5012753;28;20245;-77
2021/12/13 00:51:03;;;;;;;6.80;5.25;;;1.40;99.90;;;;;;5011269;28;20274;-77
2021/12/13 00:53:42;;;;;;;9.48;5.85;;;1.40;99.90;;;;;;5011296;28;20159;-77
2021/12/13 00:56:48;;;;;;;7.15;4.88;;;1.40;99.90;;;;;;5011406;28;20205;-77
2021/12/13 00:59:26;;;;;;;8.48;5.03;;;1.40;99.90;;;;;;5021626;28;20734;-76
2021/12/13 01:02:14;;;;;;;9.38;5.28;;;1.50;99.90;;;;;;5030845;28;20162;-76
2021/12/13 01:05:11;;;;;;;8.00;4.93;;;1.50;99.90;;;;;;5029985;28;20285;-78
2021/12/13 01:08:12;;;;;;;8.88;4.85;;;1.50;99.90;;;;;;5030713;28;20206;-80
2021/12/13 01:10:39;;;;;;;7.25;4.65;;;1.50;99.90;;;;;;5030795;28;20193;-79
2021/12/13 01:13:18;;;;;;;8.68;5.40;;;1.60;99.90;;;;;;5030688;28;20186;-79
2021/12/13 01:15:52;;;;;;;10.25;5.45;;;1.60;99.90;;;;;;5030575;28;20169;-81
2021/12/13 01:21:59;;;;;;;9.38;5.00;;;1.50;99.90;;;;;;5028261;28;20177;-79
2021/12/13 01:27:34;;;;;;;10.57;5.13;;;1.50;99.90;;;;;;5010909;28;20245;-78
2021/12/13 01:30:00;;;;;;;9.10;4.93;;;1.50;99.90;;;;;;5028240;28;20164;-78
2021/12/13 01:32:36;;;;;;;8.52;4.57;;;1.50;99.90;;;;;;5028352;28;20185;-78
2021/12/13 01:35:09;;;;;;;8.00;5.28;;;1.50;99.90;;;;;;5028281;28;20170;-78
2021/12/13 01:37:35;;;;;;;8.70;5.50;;;1.50;99.90;;;;;;5027918;28;20190;-77
2021/12/13 01:40:13;;;;;;;9.57;5.07;;;1.50;99.90;;;;;;5028113;28;20166;-77
2021/12/13 01:42:40;;;;;;;8.55;5.18;;;1.50;99.90;;;;;;5028150;28;20225;-77
2021/12/13 01:45:13;;;;;;;7.78;4.68;;;1.50;99.90;;;;;;5028217;28;20277;-77
2021/12/13 01:47:44;;;;;;;10.77;5.78;;;1.50;99.90;;;;;;5024675;28;20193;-77
2021/12/13 01:50:28;;;;;;;7.32;4.68;;;1.50;99.90;;;;;;5023797;28;20241;-77
2021/12/13 01:52:55;;;;;;;8.35;5.65;;;1.40;99.90;;;;;;5024902;28;20169;-78
2021/12/13 01:55:34;;;;;;;9.00;6.35;;;1.40;99.90;;;;;;5027325;28;20163;-77
2021/12/13 02:01:25;;;;;;;7.38;4.65;;;1.50;99.90;;;;;;5010323;28;20170;-77
2021/12/13 02:04:05;;;;;;;7.72;5.03;;;1.50;99.90;;;;;;5007892;28;20207;-78
2021/12/13 02:06:35;;;;;;;14.43;4.68;;;1.50;99.90;;;;;;5010154;28;20151;-78
2021/12/13 02:09:17;;;;;;;10.07;5.32;;;1.50;99.90;;;;;;5009998;28;20193;-78
2021/12/13 02:11:47;;;;;;;9.52;5.38;;;1.50;99.90;;;;;;4992546;28;20198;-77
2021/12/13 02:14:18;;;;;;;9.05;5.28;;;1.50;99.90;;;;;;5010035;28;20172;-77
2021/12/13 02:20:07;;;;;;;6.97;4.63;;;1.60;99.90;;;;;;4996868;28;20221;-78
2021/12/13 02:22:36;;;;;;;9.50;5.07;;;1.50;99.90;;;;;;5009995;28;20223;-77
2021/12/13 02:25:14;;;;;;;7.82;4.72;;;1.50;99.90;;;;;;4992376;28;20198;-78
2021/12/13 02:27:47;;;;;;;8.77;5.72;;;1.50;99.90;;;;;;5009782;28;20194;-77
2021/12/13 02:30:35;;;;;;;14.23;6.38;;;1.60;99.90;;;;;;5009770;28;20293;-77
2021/12/13 02:33:03;;;;;;;7.05;4.38;;;1.70;99.90;;;;;;5009823;28;20178;-76
2021/12/13 02:35:34;;;;;;;8.05;5.80;;;1.70;99.90;;;;;;5009659;28;20209;-77
2021/12/13 02:38:02;;;;;;;8.35;5.45;;;1.70;99.90;;;;;;5009636;28;20198;-77
2021/12/13 02:40:28;;;;;;;8.45;5.28;;;1.70;99.90;;;;;;5009646;28;20159;-76
2021/12/13 02:42:55;;;;;;;7.57;4.70;;;1.90;99.90;;;;;;4992130;28;20266;-77
2021/12/13 02:45:32;;;;;;;9.20;4.70;;;1.80;99.90;;;;;;5009597;28;20526;-77
2021/12/13 02:48:09;;;;;;;10.63;5.00;;;1.70;99.90;;;;;;5003927;28;20288;-77
2021/12/13 02:50:56;;;;;;;9.07;5.82;;;1.70;99.90;;;;;;5028935;28;20150;-77
2021/12/13 02:53:36;;;;;;;8.40;5.57;;;1.60;99.90;;;;;;5028952;28;20158;-77
2021/12/13 02:56:04;;;;;;;12.18;5.25;;;1.70;99.90;;;;;;5029118;28;20161;-77
2021/12/13 02:58:32;;;;;;;8.35;5.22;;;1.60;99.90;;;;;;5028770;28;20297;-77
2021/12/13 03:01:08;;;;;;;10.77;5.82;;;1.60;99.90;;;;;;5029012;28;20158;-77
2021/12/13 03:03:40;;;;;;;8.75;5.80;;;1.60;99.90;;;;;;5028976;28;20200;-77
2021/12/13 03:06:09;;;;;;;9.30;4.93;;;1.60;99.90;;;;;;5029036;28;20249;-76
2021/12/13 03:08:42;;;;;;;8.02;6.00;;;1.60;99.90;;;;;;5031942;28;20190;-77
2021/12/13 03:11:12;;;;;;;10.02;5.40;;;1.60;99.90;;;;;;5032921;28;20160;-77
2021/12/13 03:13:38;;;;;;;12.27;6.43;;;1.60;99.90;;;;;;5015231;28;20200;-77
2021/12/13 03:16:16;;;;;;;8.80;5.47;;;1.60;99.90;;;;;;5032826;28;20162;-77
2021/12/13 03:18:59;;;;;;;10.85;5.90;;;1.60;99.90;;;;;;5032698;28;20228;-77
2021/12/13 03:21:36;;;;;;;10.50;5.57;;;1.60;99.90;;;;;;5032796;28;20169;-76
2021/12/13 03:24:25;;;;;;;7.63;5.38;;;1.50;99.90;;;;;;5014972;28;20268;-76
2021/12/13 03:26:57;;;;;;;11.68;6.68;;;1.60;99.90;;;;;;5014832;28;20175;-77
2021/12/13 03:30:24;;;;;;;9.32;6.13;;;1.60;99.90;;;;;;5032426;28;20278;-76
2021/12/13 03:33:00;;;;;;;8.60;5.75;;;1.50;99.90;;;;;;4971662;29;20222;-76
2021/12/13 03:35:35;;;;;;;9.93;5.95;;;1.50;99.90;;;;;;4971823;29;20172;-76
2021/12/13 03:38:09;;;;;;;8.45;4.90;;;1.50;99.90;;;;;;4971817;28;20231;-77
2021/12/13 03:40:36;;;;;;;12.73;6.13;;;1.60;99.90;;;;;;4971879;29;20264;-76
2021/12/13 03:43:12;;;;;;;10.63;5.22;;;1.60;99.90;;;;;;4971538;29;20204;-76
2021/12/13 03:45:48;;;;;;;7.18;5.53;;;1.60;99.90;;;;;;4971433;29;20724;-77
2021/12/13 03:48:18;;;;;;;8.43;5.28;;;1.60;99.90;;;;;;4971387;28;20226;-76
2021/12/13 03:50:48;;;;;;;9.02;5.30;;;1.50;99.90;;;;;;4971486;29;20191;-77
2021/12/13 03:53:19;;;;;;;9.93;5.65;;;1.50;99.90;;;;;;4971482;29;20222;-77
2021/12/13 03:55:48;;;;;;;10.65;5.68;;;1.50;99.90;;;;;;4971140;29;20231;-75
2021/12/13 03:58:18;;;;;;;6.82;5.28;;;1.50;99.90;;;;;;4985751;28;20218;-78
2021/12/13 04:00:56;;;;;;;10.23;5.40;;;1.50;99.90;;;;;;5009802;28;20178;-75
2021/12/13 04:03:24;;;;;;;9.45;4.65;;;1.40;99.90;;;;;;5025240;28;20217;-76
2021/12/13 04:05:51;;;;;;;11.38;5.22;;;1.40;99.90;;;;;;5051513;28;20173;-75
2021/12/13 04:08:21;;;;;;;8.38;5.65;;;1.40;99.90;;;;;;5051065;28;20189;-78
2021/12/13 04:10:55;;;;;;;8.88;5.75;;;1.40;99.90;;;;;;5051442;28;20158;-79
2021/12/13 04:13:25;;;;;;;8.18;5.43;;;1.50;99.90;;;;;;5051392;28;20166;-77
2021/12/13 04:16:15;;;;;;;11.80;5.43;;;1.50;99.90;;;;;;5051521;28;20168;-75
2021/12/13 04:21:41;;;;;;;8.10;5.15;;;1.50;99.90;;;;;;5051436;28;20173;-77
2021/12/13 04:24:15;;;;;;;11.38;4.38;;;1.60;99.90;;;;;;5050199;28;20192;-78
2021/12/13 04:26:46;;;;;;;10.73;5.80;;;1.60;99.90;;;;;;5051280;28;20614;-78
2021/12/13 04:29:26;;;;;;;6.45;4.75;;;1.60;99.90;;;;;;5051075;28;20181;-79
2021/12/13 04:31:53;;;;;;;7.78;4.20;;;1.60;99.90;;;;;;5051199;28;20153;-78
2021/12/13 04:34:24;;;;;;;13.25;6.13;;;1.50;99.90;;;;;;5038041;28;20178;-76
2021/12/13 04:36:52;;;;;;;8.82;5.30;;;1.50;99.90;;;;;;5030772;28;20158;-78
2021/12/13 04:39:33;;;;;;;11.00;6.40;;;1.50;99.90;;;;;;5028626;28;20273;-76
2021/12/13 04:42:07;;;;;;;8.13;5.78;;;1.50;99.90;;;;;;5029829;28;20165;-77
2021/12/13 04:44:38;;;;;;;10.98;6.25;;;1.50;99.90;;;;;;5046049;28;20198;-77
2021/12/13 04:47:16;;;;;;;8.73;4.65;;;1.50;99.90;;;;;;5030927;28;20154;-77
2021/12/13 04:49:46;;;;;;;11.07;5.72;;;1.50;99.90;;;;;;5029286;28;20205;-77
2021/12/13 04:52:16;;;;;;;8.32;4.82;;;1.40;99.90;;;;;;5030823;28;20185;-77
2021/12/13 04:54:50;;;;;;;9.52;6.10;;;1.50;99.90;;;;;;5029891;28;20170;-78
2021/12/13 04:57:18;;;;;;;11.48;7.22;;;1.40;99.90;;;;;;5030879;28;20173;-78
2021/12/13 04:59:53;;;;;;;10.65;6.35;;;1.40;99.90;;;;;;5011050;28;20265;-78
2021/12/13 05:02:20;;;;;;;9.38;6.40;;;1.40;99.90;;;;;;5009850;28;20208;-78
2021/12/13 05:04:52;;;;;;;7.47;5.57;;;1.40;99.90;;;;;;5017701;28;20193;-78
2021/12/13 05:07:19;;;;;;;9.85;7.13;;;1.40;99.90;;;;;;5008073;28;20193;-76
2021/12/13 05:09:48;;;;;;;9.85;6.05;;;1.40;99.90;;;;;;5016658;28;20166;-75
2021/12/13 05:12:17;;;;;;;14.13;6.18;;;1.40;99.90;;;;;;5010755;28;20182;-75
2021/12/13 05:14:51;;;;;;;11.25;5.68;;;1.40;99.90;;;;;;5030190;28;20158;-76
2021/12/13 05:17:19;;;;;;;7.85;5.88;;;1.40;99.90;;;;;;5029927;28;20226;-75
2021/12/13 05:19:53;;;;;;;9.73;5.72;;;1.40;99.90;;;;;;5030179;28;20162;-76
2021/12/13 05:22:21;;;;;;;12.25;6.05;;;1.40;99.90;;;;;;5030252;28;20162;-77
2021/12/13 05:25:00;;;;;;;8.48;5.30;;;1.40;99.90;;;;;;5030097;28;20197;-76
2021/12/13 05:27:34;;;;;;;9.32;5.60;;;1.40;99.90;;;;;;5012194;28;20173;-76
2021/12/13 05:30:23;;;;;;;12.05;6.00;;;1.40;99.90;;;;;;5028544;28;20166;-76
2021/12/13 05:32:57;;;;;;;16.08;7.15;;;1.40;99.90;;;;;;5025872;28;20169;-76
2021/12/13 05:35:44;;;;;;;10.82;6.47;;;1.50;99.90;;;;;;5023732;28;20186;-76
2021/12/13 05:38:35;;;;;;;11.02;6.88;;;1.50;99.90;;;;;;5009957;28;20155;-76
2021/12/13 05:41:08;;;;;;;10.90;5.85;;;1.50;99.90;;;;;;4992908;28;20163;-76
2021/12/13 05:43:41;;;;;;;12.40;6.57;;;1.50;99.90;;;;;;5010003;28;20198;-76
2021/12/13 05:46:12;;;;;;;9.52;5.90;;;1.50;99.90;;;;;;5009947;28;20186;-76
2021/12/13 05:48:48;;;;;;;9.00;5.93;;;1.50;99.90;;;;;;4993159;28;20154;-76
2021/12/13 05:51:45;;;;;;;9.68;5.65;;;1.60;99.90;;;;;;4992171;28;20174;-76
2021/12/13 05:54:20;;;;;;;11.43;6.63;;;1.50;99.90;;;;;;4990742;28;20198;-76
2021/12/13 05:57:19;;;;;;;11.10;6.82;;;1.60;99.90;;;;;;5009819;28;20197;-75
2021/12/13 05:59:51;;;;;;;6.80;4.70;;;1.60;99.90;;;;;;5004939;28;20211;-76
2021/12/13 06:02:58;;;;;;;6.38;4.43;;;1.60;99.90;;;;;;5012784;28;20248;-76
2021/12/13 06:05:30;;;;;;;8.32;5.47;;;1.60;99.90;;;;;;4989294;28;20207;-76
2021/12/13 06:08:04;;;;;;;10.18;6.00;;;1.60;99.90;;;;;;5035374;28;20259;-75
2021/12/13 06:10:55;;;;;;;7.93;5.07;;;1.60;99.90;;;;;;5048378;28;20699;-75
2021/12/13 06:13:43;;;;;;;9.18;5.25;;;1.60;99.90;;;;;;5048752;28;20186;-75
2021/12/13 06:16:18;;;;;;;8.80;5.68;;;1.50;99.90;;;;;;5048477;28;20197;-75
2021/12/13 06:19:11;;;;;;;7.10;4.63;;;1.50;99.90;;;;;;5043816;28;20172;-75
2021/12/13 06:22:01;;;;;;;7.50;5.18;;;1.60;99.90;;;;;;5028450;28;20181;-76
2021/12/13 06:25:03;;;;;;;8.73;5.65;;;1.60;99.90;;;;;;5028452;28;20186;-76
2021/12/13 06:27:32;;;;;;;16.60;6.00;;;1.60;99.90;;;;;;5018531;28;20212;-75
2021/12/13 06:30:16;;;;;;;8.23;5.28;;;1.60;99.90;;;;;;5028508;28;20166;-75
2021/12/13 06:33:12;;;;;;;9.10;5.57;;;1.70;99.90;;;;;;5028325;28;20174;-75
2021/12/13 06:35:52;;;;;;;9.50;5.60;;;1.70;99.90;;;;;;5028331;28;20161;-75
2021/12/13 06:38:41;;;;;;;7.82;5.20;;;1.70;99.90;;;;;;5010848;28;20181;-76
2021/12/13 06:41:12;;;;;;;8.15;4.70;;;1.60;99.90;;;;;;5028389;28;20161;-75
2021/12/13 06:43:44;;;;;;;9.35;5.05;;;1.60;99.90;;;;;;5027747;28;20186;-75
2021/12/13 06:46:32;;;;;;;8.35;5.30;;;1.60;99.90;;;;;;5028421;28;20213;-76
2021/12/13 06:49:13;;;;;;;9.88;5.60;;;1.60;99.90;;;;;;5024121;28;20165;-75
2021/12/13 06:51:50;;;;;;;11.75;6.28;;;1.60;99.90;;;;;;5010803;28;20221;-76
2021/12/13 06:54:24;;;;;;;7.15;4.85;;;1.70;99.90;;;;;;5014611;28;20170;-76
2021/12/13 06:56:55;;;;;;;8.75;4.90;;;1.70;99.90;;;;;;5010683;28;20209;-75
2021/12/13 06:59:22;;;;;;;12.52;5.72;;;1.80;99.90;;;;;;5008785;28;20233;-76
2021/12/13 07:02:06;;;;;;;9.68;5.72;;;1.90;99.90;;;;;;4991764;28;20162;-76
2021/12/13 07:05:10;;;;;;;7.45;5.28;;;2.00;99.90;;;;;;5009210;28;20229;-74
2021/12/13 07:07:55;;;;;;;12.68;5.30;;;2.00;99.90;;;;;;4997441;28;20213;-75
2021/12/13 07:10:25;;;;;;;10.73;4.82;;;2.00;99.90;;;;;;5028113;28;20174;-76
2021/12/13 07:12:55;;;;;;;6.68;5.72;;;2.00;99.90;;;;;;5027924;28;20154;-75
2021/12/13 07:15:43;;;;;;;8.85;5.28;;;2.10;99.90;;;;;;5026346;28;20185;-74
2021/12/13 07:18:47;;;;;;;6.38;4.80;;;2.10;99.90;;;;;;5011957;28;20187;-74
2021/12/13 07:21:28;;;;;;;5.97;5.22;;;2.10;99.90;;;;;;5027197;28;20177;-75
2021/12/13 07:24:09;;;;;;;6.55;4.40;;;2.00;99.90;;;;;;5019212;28;20706;-74
2021/12/13 07:26:55;;;;;;;6.65;4.85;;;2.00;99.90;;;;;;5020216;28;20192;-74
2021/12/13 07:29:27;;;;;;;6.20;4.60;;;2.00;99.90;;;;;;5025985;28;20157;-75
2021/12/13 07:32:17;;;;;;;7.97;4.63;;;2.00;99.90;;;;;;5025841;28;20158;-75
2021/12/13 07:35:11;;;;;;;7.00;4.68;;;2.10;99.90;;;;;;5019648;28;20186;-76
2021/12/13 07:38:00;;;;;;;6.75;4.43;;;2.10;99.90;;;;;;4974674;28;20214;-74
2021/12/13 07:40:31;;;;;;;5.55;4.00;;;2.20;99.90;;;;;;5011664;28;20187;-75
2021/12/13 07:43:03;;;;;;;5.63;4.10;;;2.30;99.90;;;;;;5010337;28;20218;-76
2021/12/13 07:45:50;;;;;;;10.10;5.00;;;2.30;99.90;;;;;;5046614;28;20172;-74
2021/12/13 07:48:35;;;;;;;6.53;3.67;;;2.40;99.90;;;;;;5047669;28;20162;-75
2021/12/13 07:51:13;;;;;;;7.63;4.78;;;2.60;99.90;;;;;;5047794;28;20164;-76
2021/12/13 07:53:42;;;;;;;5.40;3.30;;;2.80;99.90;;;;;;5048990;28;20216;-76
2021/12/13 07:56:10;;;;;;;6.70;4.05;;;2.80;99.90;;;;;;5040766;28;20197;-76
2021/12/13 07:58:44;;;;;;;3.75;3.28;;;2.80;99.90;;;;;;5031136;28;20232;-76
2021/12/13 08:01:26;;;;;;;5.63;3.83;;;2.90;99.90;;;;;;5051238;28;20161;-75
2021/12/13 08:03:59;;;;;;;4.93;3.63;;;3.00;99.90;;;;;;5031102;28;20194;-76
2021/12/13 08:06:47;;;;;;;5.75;3.75;;;3.00;99.90;;;;;;5031321;28;20182;-75
2021/12/13 08:09:17;;;;;;;6.00;3.65;;;3.10;99.90;;;;;;5030789;28;20182;-75
2021/12/13 08:11:53;;;;;;;6.22;3.78;;;3.20;99.90;;;;;;5031335;28;20158;-75
2021/12/13 08:14:35;;;;;;;5.53;3.25;;;3.30;99.90;;;;;;5031202;28;20180;-75
2021/12/13 08:17:20;;;;;;;7.78;3.95;;;3.50;99.90;;;;;;5029701;28;20225;-75
2021/12/13 08:20:00;;;;;;;9.68;4.32;;;3.60;99.90;;;;;;5031127;28;20166;-75
2021/12/13 08:22:29;;;;;;;5.60;3.85;;;3.60;99.90;;;;;;5030907;28;20212;-75
2021/12/13 08:25:00;;;;;;;6.20;4.38;;;3.60;99.90;;;;;;5030613;28;20186;-75
2021/12/13 08:27:31;;;;;;;5.90;4.22;;;3.80;99.90;;;;;;5030789;28;20261;-75
2021/12/13 08:30:32;;;;;;;6.97;4.10;;;3.90;99.90;;;;;;5030885;28;20155;-75
2021/12/13 08:33:00;;;;;;;7.68;4.18;;;4.10;99.90;;;;;;5043640;28;20687;-75
2021/12/13 08:35:27;;;;;;;6.30;4.65;;;4.20;99.90;;;;;;5050321;28;20162;-75
2021/12/13 08:37:57;;;;;;;6.43;4.57;;;4.10;99.90;;;;;;5050446;28;20189;-75
2021/12/13 08:40:28;;;;;;;6.25;4.40;;;4.10;99.90;;;;;;5050454;28;20154;-75
2021/12/13 08:42:58;;;;;;;7.47;5.53;;;4.10;99.90;;;;;;5050430;28;20175;-75
2021/12/13 08:45:35;;;;;;;6.65;4.82;;;4.20;99.90;;;;;;5050496;28;20187;-75
2021/12/13 08:48:03;;;;;;;11.95;6.72;;;4.20;99.90;;;;;;5048991;28;20200;-75
2021/12/13 08:50:37;;;;;;;16.73;7.63;;;4.30;99.90;;;;;;5050196;28;20184;-74
2021/12/13 08:53:08;;;;;;;18.83;7.90;;;4.40;99.90;;;;;;5050169;28;20158;-75
2021/12/13 08:55:41;;;;;;;10.45;5.30;;;4.50;99.90;;;;;;5050498;28;20536;-76
2021/12/13 08:58:09;;;;;;;9.02;4.63;;;4.50;99.90;;;;;;5026918;28;20234;-75
2021/12/13 09:00:59;;;;;;;7.93;5.00;;;4.60;99.90;;;;;;5018683;28;20178;-75
2021/12/13 09:03:44;;;;;;;10.27;4.75;;;4.90;99.90;;;;;;5013956;28;20276;-76
2021/12/13 09:06:16;;;;;;;7.47;4.50;;;4.80;99.90;;;;;;5021329;28;20186;-76
2021/12/13 09:08:53;;;;;;;5.03;3.80;;;4.80;99.90;;;;;;4992902;28;20173;-76
2021/12/13 09:11:25;;;;;;;4.80;3.78;;;4.90;99.90;;;;;;5010563;28;20186;-75
2021/12/13 09:14:13;;;;;;;9.07;4.22;;;5.00;99.90;;;;;;5010392;28;20155;-76
2021/12/13 09:17:07;;;;;;;7.82;4.35;;;5.00;99.90;;;;;;5019884;28;20202;-75
2021/12/13 09:19:56;;;;;;;6.93;4.20;;;5.10;99.90;;;;;;5029667;28;20181;-76
2021/12/13 09:22:28;;;;;;;7.35;4.70;;;5.30;99.90;;;;;;5029837;28;20186;-76
2021/12/13 09:24:57;;;;;;;8.95;4.65;;;5.50;99.90;;;;;;5028614;28;20201;-76
2021/12/13 09:27:37;;;;;;;6.32;4.20;;;5.80;99.90;;;;;;5028666;28;20198;-75
2021/12/13 09:30:12;;;;;;;7.50;3.80;;;5.90;99.90;;;;;;5029520;28;20170;-75
2021/12/13 09:32:43;;;;;;;4.78;3.85;;;6.00;99.90;;;;;;5028462;28;20165;-76
2021/12/13 09:35:28;;;;;;;6.95;3.80;;;6.10;99.90;;;;;;5029832;28;20225;-76
2021/12/13 09:37:57;;;;;;;8.15;4.20;;;6.20;99.90;;;;;;5030016;28;20265;-75
2021/12/13 09:40:39;;;;;;;9.18;4.78;;;5.90;99.90;;;;;;5011544;28;20270;-75
2021/12/13 09:43:06;;;;;;;12.25;6.10;;;5.90;99.90;;;;;;5029245;28;20158;-76
2021/12/13 09:45:53;;;;;;;10.80;6.45;;;5.70;99.90;;;;;;5029126;28;20572;-76
2021/12/13 09:48:30;;;;;;;10.23;5.85;;;6.00;99.90;;;;;;5025219;28;20182;-75
2021/12/13 09:51:01;;;;;;;11.30;6.22;;;5.80;99.90;;;;;;5012731;28;20204;-76
2021/12/13 09:53:33;;;;;;;10.75;6.15;;;5.90;99.90;;;;;;5024782;28;20166;-76
2021/12/13 09:56:04;;;;;;;9.68;5.47;;;5.60;99.90;;;;;;5026159;28;20163;-76
2021/12/13 09:58:42;;;;;;;13.63;4.95;;;5.50;99.90;;;;;;5009527;28;20222;-76
2021/12/13 10:01:17;;;;;;;9.35;5.18;;;5.50;99.90;;;;;;5009457;28;20205;-76
2021/12/13 10:03:43;;;;;;;12.82;4.50;;;5.70;99.90;;;;;;5009603;28;20197;-75
2021/12/13 10:06:12;;;;;;;5.95;3.88;;;5.60;99.90;;;;;;5009520;28;20158;-75
2021/12/13 10:08:49;;;;;;;5.40;4.07;;;5.30;99.90;;;;;;5015874;28;20230;-76
2021/12/13 10:11:40;;;;;;;7.53;4.20;;;5.10;99.90;;;;;;5028839;28;20182;-75
2021/12/13 10:14:09;;;;;;;11.65;4.32;;;5.00;99.90;;;;;;5011137;28;20173;-76
2021/12/13 10:16:39;;;;;;;9.95;4.63;;;5.10;99.90;;;;;;5028701;28;20169;-77
2021/12/13 10:19:10;;;;;;;9.90;5.03;;;4.80;99.90;;;;;;5028916;28;20154;-76
2021/12/13 10:21:40;;;;;;;8.15;5.18;;;5.10;99.90;;;;;;5029062;28;20217;-76
2021/12/13 10:24:24;;;;;;;13.18;6.05;;;5.10;99.90;;;;;;5028864;28;20197;-76
2021/12/13 10:26:52;;;;;;;10.75;5.72;;;5.10;99.90;;;;;;5028601;28;20181;-76
2021/12/13 10:29:19;;;;;;;11.48;6.40;;;5.10;99.90;;;;;;5029013;28;20165;-77
2021/12/13 10:32:00;;;;;;;13.27;6.78;;;5.20;99.90;;;;;;5022219;28;20171;-75
2021/12/13 10:34:35;;;;;;;10.98;5.50;;;5.10;99.90;;;;;;5023646;28;20184;-76
2021/12/13 10:37:11;;;;;;;12.65;5.22;;;4.90;99.90;;;;;;5024514;28;20173;-75
2021/12/13 10:39:45;;;;;;;5.60;4.20;;;4.90;99.90;;;;;;5009037;28;20194;-75
2021/12/13 10:42:15;;;;;;;9.80;5.43;;;5.20;99.90;;;;;;5008840;28;20154;-75
2021/12/13 10:44:44;;;;;;;8.75;4.88;;;5.10;99.90;;;;;;5008626;28;20198;-76
2021/12/13 10:47:35;;;;;;;10.98;5.50;;;5.00;99.90;;;;;;5008791;28;20219;-75
2021/12/13 10:50:06;;;;;;;13.20;5.55;;;5.00;99.90;;;;;;5018362;28;20582;-76
2021/12/13 10:52:36;;;;;;;12.02;5.35;;;5.00;99.90;;;;;;5028578;28;20150;-76
2021/12/13 10:55:12;;;;;;;9.73;6.05;;;5.10;99.90;;;;;;5010779;28;20182;-75
2021/12/13 10:57:44;;;;;;;9.52;5.32;;;5.20;99.90;;;;;;5028311;28;20166;-75
2021/12/13 11:00:32;;;;;;;10.13;5.53;;;5.20;99.90;;;;;;5028187;28;20205;-76
2021/12/13 11:03:05;;;;;;;11.48;5.28;;;5.30;99.90;;;;;;5010548;28;20193;-76
2021/12/13 11:05:32;;;;;;;10.93;6.40;;;5.30;99.90;;;;;;5028395;28;20162;-75
2021/12/13 11:08:00;;;;;;;7.95;5.75;;;5.50;99.90;;;;;;5028286;28;20162;-77
2021/12/13 11:10:34;;;;;;;15.30;5.95;;;5.60;99.90;;;;;;5028025;28;20273;-75
2021/12/13 11:13:02;;;;;;;14.85;5.55;;;5.40;99.90;;;;;;5028036;28;20158;-77
2021/12/13 11:15:34;;;;;;;12.90;6.45;;;5.50;99.90;;;;;;5010287;28;20166;-76
2021/12/13 11:18:05;;;;;;;9.35;5.60;;;5.60;99.90;;;;;;5028176;28;20165;-77
2021/12/13 11:20:37;;;;;;;15.00;6.32;;;5.50;99.90;;;;;;5027985;28;20194;-75
2021/12/13 11:23:04;;;;;;;11.98;6.22;;;5.60;99.90;;;;;;5028038;28;20170;-76
2021/12/13 11:25:37;;;;;;;12.20;7.13;;;5.60;99.90;;;;;;5010305;28;20177;-77
2021/12/13 11:28:05;;;;;;;11.85;7.50;;;5.60;99.90;;;;;;5028518;28;20218;-77
2021/12/13 11:30:33;;;;;;;14.27;6.95;;;5.40;99.90;;;;;;5008057;28;20194;-75
2021/12/13 11:32:59;;;;;;;15.05;7.53;;;5.40;99.90;;;;;;5020522;28;20186;-76
2021/12/13 11:35:39;;;;;;;15.98;8.32;;;5.30;99.90;;;;;;5031398;28;20162;-76
2021/12/13 11:38:27;;;;;;;17.30;7.57;;;5.20;99.90;;;;;;5031581;28;20782;-76
2021/12/13 11:41:30;;;;;;;12.98;6.95;;;5.10;99.90;;;;;;5031550;28;20178;-75
2021/12/13 11:44:11;;;;;;;14.00;6.82;;;5.20;99.90;;;;;;5044662;28;20211;-76
2021/12/13 11:46:59;;;;;;;14.98;7.53;;;5.30;99.90;;;;;;5050951;28;20230;-76
2021/12/13 11:50:00;;;;;;;9.80;6.60;;;5.10;99.90;;;;;;5051237;28;20248;-75
2021/12/13 11:53:03;;;;;;;12.27;7.20;;;5.00;99.90;;;;;;5051092;28;20188;-76
2021/12/13 11:55:37;;;;;;;10.15;6.25;;;5.30;99.90;;;;;;5033375;28;20177;-77
2021/12/13 11:58:42;;;;;;;8.45;5.55;;;5.40;99.90;;;;;;5051100;28;20227;-76
2021/12/13 12:01:47;;;;;;;10.57;6.55;;;5.40;99.90;;;;;;5051100;28;20161;-76
2021/12/13 12:04:50;;;;;;;12.40;6.38;;;5.30;99.90;;;;;;5050876;28;20200;-75
2021/12/13 12:08:04;;;;;;;11.30;7.00;;;5.40;99.90;;;;;;5050796;28;20212;-75
2021/12/13 12:10:50;;;;;;;10.63;4.85;;;5.40;99.90;;;;;;4963039;28;20223;-76
2021/12/13 12:13:52;;;;;;;9.80;5.47;;;5.40;99.90;;;;;;5050671;28;20166;-76
2021/12/13 12:16:23;;;;;;;14.45;5.57;;;5.50;99.90;;;;;;5051031;28;20161;-76
2021/12/13 12:18:51;;;;;;;9.05;5.50;;;5.70;99.90;;;;;;5050563;28;20161;-76
2021/12/13 12:21:43;;;;;;;11.77;5.45;;;5.90;99.90;;;;;;5050793;28;20239;-76
2021/12/13 12:24:16;;;;;;;16.52;7.22;;;5.90;99.90;;;;;;5050382;28;20201;-75
2021/12/13 12:26:45;;;;;;;9.15;5.47;;;5.80;99.90;;;;;;5025804;28;20178;-76
2021/12/13 12:29:17;;;;;;;11.07;4.78;;;5.80;99.90;;;;;;5011518;28;20151;-77
2021/12/13 12:31:58;;;;;;;10.88;5.93;;;5.90;99.90;;;;;;5012088;28;20161;-78
2021/12/13 12:34:25;;;;;;;7.68;4.53;;;5.70;99.90;;;;;;5011716;28;20206;-77
2021/12/13 12:36:57;;;;;;;6.00;4.88;;;5.80;99.90;;;;;;5011816;28;20173;-75
2021/12/13 12:39:56;;;;;;;8.15;4.43;;;5.90;99.90;;;;;;5011996;28;20159;-78
2021/12/13 12:42:33;;;;;;;7.10;4.38;;;5.90;99.90;;;;;;4995447;28;20201;-79
2021/12/13 12:45:03;;;;;;;8.57;4.05;;;5.80;99.90;;;;;;5010431;28;20554;-78
2021/12/13 12:47:35;;;;;;;6.65;4.25;;;5.90;99.90;;;;;;4993535;28;20175;-76
2021/12/13 12:50:18;;;;;;;6.93;3.97;;;5.90;99.90;;;;;;5011442;28;20159;-76
2021/12/13 12:52:48;;;;;;;6.35;3.78;;;5.80;99.90;;;;;;5011160;28;20607;-77
2021/12/13 12:55:21;;;;;;;6.72;3.60;;;5.60;99.90;;;;;;5010695;28;20213;-76
2021/12/13 12:57:47;;;;;;;5.57;3.58;;;5.50;99.90;;;;;;5010653;28;20226;-77
2021/12/13 13:00:15;;;;;;;13.00;4.35;;;5.20;99.90;;;;;;5010980;28;20258;-76
2021/12/13 13:02:40;;;;;;;13.65;4.60;;;5.30;99.90;;;;;;5011043;28;20188;-76
2021/12/13 13:05:09;;;;;;;6.18;3.33;;;5.30;99.90;;;;;;5009277;28;20221;-76
2021/12/13 13:07:38;;;;;;;6.50;4.00;;;5.20;99.90;;;;;;5010977;28;20163;-76
2021/12/13 13:10:25;;;;;;;4.05;3.33;;;5.30;99.90;;;;;;5010710;28;20539;-76
2021/12/13 13:13:06;;;;;;;7.45;3.38;;;5.40;99.90;;;;;;5010659;28;20155;-77
2021/12/13 13:15:38;;;;;;;5.80;3.55;;;5.50;99.90;;;;;;5010824;28;20161;-77
2021/12/13 13:18:08;;;;;;;6.03;4.38;;;5.50;99.90;;;;;;5010579;28;20183;-76
2021/12/13 13:20:44;;;;;;;8.88;4.35;;;5.60;99.90;;;;;;5010694;28;20166;-76
2021/12/13 13:23:12;;;;;;;7.07;4.25;;;5.50;99.90;;;;;;5009955;28;20155;-77
2021/12/13 13:25:47;;;;;;;7.00;4.05;;;5.50;99.90;;;;;;5010394;28;20195;-78
2021/12/13 13:28:18;;;;;;;8.93;4.93;;;5.50;99.90;;;;;;5011057;28;20161;-78
2021/12/13 13:30:56;;;;;;;9.32;5.03;;;5.40;99.90;;;;;;5010443;28;20167;-77
2021/12/13 13:33:43;;;;;;;9.07;4.50;;;5.30;99.90;;;;;;5010350;28;20221;-77
2021/12/13 13:36:14;;;;;;;10.40;5.93;;;5.10;99.90;;;;;;5010431;28;20155;-78
2021/12/13 13:38:41;;;;;;;8.77;4.85;;;5.20;99.90;;;;;;5011425;28;20177;-76
2021/12/13 13:41:18;;;;;;;7.90;4.75;;;5.20;99.90;;;;;;5019004;28;20167;-76
2021/12/13 13:43:44;;;;;;;7.50;4.85;;;5.20;99.90;;;;;;5009636;28;20198;-77
2021/12/13 13:46:12;;;;;;;8.30;4.47;;;5.30;99.90;;;;;;5027661;28;20165;-77
2021/12/13 13:48:42;;;;;;;7.95;4.65;;;5.30;99.90;;;;;;5029362;28;20155;-76
2021/12/13 13:51:15;;;;;;;7.55;4.38;;;5.20;99.90;;;;;;5030343;28;20193;-75
2021/12/13 13:53:49;;;;;;;10.93;4.80;;;5.30;99.90;;;;;;5048393;28;20196;-76
2021/12/13 13:56:19;;;;;;;10.68;6.65;;;5.30;99.90;;;;;;5029977;28;20173;-75
2021/12/13 13:58:48;;;;;;;12.15;5.50;;;5.40;99.90;;;;;;5029117;28;20222;-75